Terminal Aerodrome Forecast
Issued by NWS

Home | Current Version | Previous Version | Text Only | Print | Product List | Glossary On
Versions: 1 2 3 4 5 6 7 8 9 10 11 12 13 14 15 16
228
FTUS42 KTBW 292320
TAFPIE
TAF
KPIE 292320Z 3000/3024 VRB05KT P6SM VCSH FEW030 SCT120 BKN250
     FM300200 VRB03KT P6SM SCT110 BKN250
     FM301500 05007KT P6SM VCTS SCT025CB SCT070 BKN250
     FM302000 30007KT P6SM VCSH FEW035 BKN070=

USA.gov is the U.S. government's official web portal to all federal, state and local government web resources and services.